Nireas — SX9654 — position and weather

sailwx.info

Track history (hours):
 
Tides and Currents Weather Stations Pressure Air Temp Water Temp Dewpoint Dewpoint Depression Visibility Wind Speed Wind Dir Waves Ship Positions

Nireas

Last reported at 2015-May-25 10:29 UTC. Time now 2015-May-25 11:35 UTC.
Position N 39°28' E 020°12'.

Length 61 m; draft 2.5 m.

Type: Passenger vessel. MMSI: 237470300.

Date/timePositionNaut miles runAvg speedWind from/ knotsBaromVisibWave heightAir tempDewpointWater temp
2015-May-25 10:29N 39°28' E 020°12'3 3.5
2015-May-25 09:34N 39°30' E 020°16'8 8.0
2015-May-25 08:34N 39°32' E 020°06'1010.4
2015-May-25 07:34N 39°38' E 019°54'0 0.0
2015-May-25 06:34N 39°38' E 019°54'8 7.8
2015-May-25 05:34N 39°34' E 020°03'1010.4
2015-May-25 04:34N 39°30' E 020°16'0 0.0
2015-May-24 17:19N 39°30' E 020°16'0 0.0
2015-May-24 15:05N 39°30' E 020°16'5 7.9
2015-May-24 14:30N 39°26' E 020°12'1310.2
2015-May-24 13:10N 39°13' E 020°12'5 3.0
2015-May-24 11:30N 39°17' E 020°14'1110.7
2015-May-24 10:26N 39°29' E 020°12'3 3.3
2015-May-24 09:34N 39°30' E 020°16'8 8.2
2015-May-24 08:33N 39°32' E 020°06'1010.3
2015-May-24 07:34N 39°38' E 019°54'0 0.0
2015-May-24 06:34N 39°38' E 019°54'8 8.5
2015-May-24 05:34N 39°33' E 020°04'10 0.7
2015-May-23 15:12N 39°30' E 020°16'5 8.4
2015-May-23 14:33N 39°26' E 020°11'1110.0
2015-May-23 13:27N 39°15' E 020°15'4 3.6
2015-May-23 12:23N 39°12' E 020°11'6 7.0
2015-May-23 11:32N 39°18' E 020°10'10 9.8
2015-May-23 10:33N 39°28' E 020°11'4 4.0
2015-May-23 09:34N 39°30' E 020°16'8 8.1
2015-May-23 08:34N 39°32' E 020°06'1010.4
2015-May-23 07:34N 39°38' E 019°54'0 0.0
2015-May-23 06:34N 39°38' E 019°54'9 8.6
2015-May-23 05:34N 39°33' E 020°04'10 9.8
2015-May-23 04:34N 39°30' E 020°16'0 0.0
2015-May-22 15:14N 39°30' E 020°16'4 5.7
2015-May-22 14:32N 39°28' E 020°12'1111.2
2015-May-22 13:34N 39°17' E 020°11'5 4.6
2015-May-22 12:34N 39°12' E 020°11'6 5.6
2015-May-22 11:33N 39°18' E 020°12'11 9.9
2015-May-22 10:25N 39°29' E 020°12'3 3.5
2015-May-22 09:34N 39°30' E 020°16'9 8.5
2015-May-22 08:34N 39°32' E 020°05'10 9.9
2015-May-22 07:34N 39°38' E 019°54'0 0.1
2015-May-22 06:34N 39°38' E 019°54'8 8.4
2015-May-22 05:34N 39°34' E 020°04'10 9.9
2015-May-22 04:33N 39°30' E 020°16'0 0.0
2015-May-22 03:33N 39°30' E 020°16'0 0.0
2015-May-22 02:30N 39°30' E 020°16'0 0.0
2015-May-22 01:32N 39°30' E 020°16'0 0.0
2015-May-22 00:17N 39°30' E 020°16'0 0.0
2015-May-21 23:26N 39°30' E 020°16'0 0.0
2015-May-21 22:18N 39°30' E 020°16'0 0.0
2015-May-21 21:18N 39°30' E 020°16'0 0.0
2015-May-21 20:31N 39°30' E 020°16'0 0.0
2015-May-21 19:32N 39°30' E 020°16'0 0.0
2015-May-21 18:04N 39°30' E 020°16'0 0.0
2015-May-21 17:32N 39°30' E 020°16'0 0.0
2015-May-21 16:31N 39°30' E 020°16'0 0.0
2015-May-21 15:33N 39°30' E 020°16'3 3.1
2015-May-21 14:33N 39°29' E 020°12'1111.2
2015-May-21 13:34N 39°18' E 020°12'6 5.6
2015-May-21 12:34N 39°12' E 020°11'4 4.3
2015-May-21 11:34N 39°17' E 020°11'1210.7
2015-May-21 10:28N 39°28' E 020°12'3 3.5
2015-May-21 09:33N 39°30' E 020°16'8 8.1
2015-May-21 08:34N 39°32' E 020°06'10 4.8
2015-May-21 06:25N 39°38' E 019°54'8 9.0
2015-May-21 05:34N 39°34' E 020°03'1110.5
2015-May-21 04:33N 39°30' E 020°16'0 0.2
2015-May-21 03:30N 39°30' E 020°16'0 0.0
2015-May-20 15:14N 39°30' E 020°16'5 5.7
2015-May-20 14:19N 39°26' E 020°12'1210.8
2015-May-20 13:12N 39°13' E 020°12'1 1.7
2015-May-20 12:28N 39°12' E 020°11'6 6.5
2015-May-20 11:31N 39°18' E 020°12'1010.7
2015-May-20 10:32N 39°29' E 020°12'3 2.9
2015-May-20 09:34N 39°30' E 020°16'8 8.1
2015-May-20 08:34N 39°32' E 020°06'1010.4
2015-May-20 07:34N 39°38' E 019°54'0 0.0
2015-May-20 06:34N 39°38' E 019°54'9 9.2
2015-May-20 05:34N 39°33' E 020°05'9 9.2
2015-May-20 04:34N 39°30' E 020°16'0 0.0
2015-May-20 03:34N 39°30' E 020°16'0 0.0
2015-May-20 02:34N 39°30' E 020°16'0 0.0
2015-May-20 01:34N 39°30' E 020°16'0 0.0
2015-May-20 00:33N 39°30' E 020°16'0 0.0
2015-May-19 23:34N 39°30' E 020°16'0 0.0
2015-May-19 22:33N 39°30' E 020°16'0 0.0
2015-May-19 21:34N 39°30' E 020°16'0 0.0
2015-May-19 20:34N 39°30' E 020°16'0 0.0
2015-May-19 19:34N 39°30' E 020°16'0 0.0
2015-May-19 18:34N 39°30' E 020°16'0 0.0
2015-May-19 14:34N 39°30' E 020°16'0 0.0
2015-May-19 13:34N 39°30' E 020°16'0 0.0
2015-May-19 12:34N 39°30' E 020°16'0 0.0
2015-May-19 11:34N 39°30' E 020°16'0 0.0
2015-May-19 10:34N 39°30' E 020°16'0 0.0
2015-May-19 09:34N 39°30' E 020°16'8 7.8
2015-May-19 08:34N 39°32' E 020°06'1110.6
2015-May-19 07:34N 39°38' E 019°54'0 0.1
2015-May-19 06:33N 39°38' E 019°54'8 7.9
2015-May-19 05:34N 39°34' E 020°03'1010.2
2015-May-19 04:33N 39°30' E 020°16'5 0.4
2015-May-18 14:23N 39°26' E 020°12'1310.9
2015-May-18 13:12N 39°13' E 020°12'1 0.9
2015-May-18 12:33N 39°12' E 020°11'7 6.8
2015-May-18 11:33N 39°19' E 020°12'11 8.8
2015-May-18 10:17N 39°30' E 020°15'0 0.4
2015-May-18 09:34N 39°30' E 020°16'8 8.3
2015-May-18 08:34N 39°33' E 020°06'1010.1
2015-May-18 07:33N 39°38' E 019°54'0 0.0
2015-May-18 06:34N 39°38' E 019°54'8 8.4
2015-May-18 05:34N 39°34' E 020°04'1010.0
2015-May-18 04:33N 39°30' E 020°16'0 0.0
2015-May-18 03:34N 39°30' E 020°16'0 0.0
2015-May-18 02:34N 39°30' E 020°16'0 0.0
2015-May-18 01:34N 39°30' E 020°16'0 0.0
2015-May-18 00:33N 39°30' E 020°16'0 0.0
2015-May-17 23:33N 39°30' E 020°16'0 0.0
2015-May-17 22:34N 39°30' E 020°16'0 0.0
2015-May-17 21:34N 39°30' E 020°16'0 0.0
2015-May-17 20:33N 39°30' E 020°16'0 0.0
2015-May-17 19:34N 39°30' E 020°16'0 0.0
2015-May-17 18:25N 39°30' E 020°16'0 0.0
2015-May-17 17:34N 39°30' E 020°16'0 0.0
2015-May-17 16:34N 39°30' E 020°16'0 0.0
2015-May-17 15:33N 39°30' E 020°16'0 0.0
2015-May-17 14:34N 39°30' E 020°16'0 0.0
2015-May-17 13:34N 39°30' E 020°16'0 0.0
2015-May-17 12:34N 39°30' E 020°16'4 3.8
2015-May-17 11:24N 39°31' E 020°10'910.6
2015-May-17 10:34N 39°35' E 020°00'5 5.3
2015-May-17 09:34N 39°38' E 019°54'0 0.0
2015-May-17 08:34N 39°38' E 019°54'8 7.7
2015-May-17 07:34N 39°34' E 020°03'1110.6
2015-May-17 06:34N 39°30' E 020°16'4 4.0
2015-May-17 05:27N 39°31' E 020°10'910.3
2015-May-17 04:34N 39°35' E 020°00'5 5.0
2015-May-17 03:34N 39°38' E 019°54'3 3.0
2015-May-17 02:33N 39°37' E 019°58'1111.2
2015-May-17 01:33N 39°31' E 020°10'4 1.0
2015-May-16 21:15N 39°30' E 020°16'0 0.0
2015-May-16 20:10N 39°30' E 020°16'4 0.7
2015-May-16 14:25N 39°27' E 020°12'1011.3
2015-May-16 13:31N 39°17' E 020°12'5 4.9
2015-May-16 12:34N 39°12' E 020°11'6 5.8
2015-May-16 11:34N 39°18' E 020°11'1110.0
2015-May-16 10:24N 39°29' E 020°12'3 3.6
2015-May-16 09:34N 39°30' E 020°16'9 8.8
2015-May-16 08:34N 39°33' E 020°05'10 9.6
2015-May-16 07:34N 39°38' E 019°54'0 0.0
2015-May-16 06:34N 39°38' E 019°54'8 8.5
2015-May-16 05:34N 39°33' E 020°04'8 0.6
2015-May-15 14:32N 39°28' E 020°12'1111.1
2015-May-15 13:33N 39°17' E 020°12'5 4.6
2015-May-15 12:34N 39°12' E 020°11'8 7.5
2015-May-15 11:34N 39°20' E 020°11'  
Track history (hours):
 
Tides and Currents Weather Stations Pressure Air Temp Water Temp Dewpoint Dewpoint Depression Visibility Wind Speed Wind Dir Waves Ship Positions

Nireas

Last reported at 2015-May-25 10:29 UTC. Time now 2015-May-25 11:35 UTC.
Position N 39°28' E 020°12'.

Length 61 m; draft 2.5 m.

Type: Passenger vessel. MMSI: 237470300.

Date/timePositionNaut miles runAvg speedWind from/ knotsBaromVisibWave heightAir tempDewpointWater temp
2015-May-25 10:29N 39°28' E 020°12'3 3.5
2015-May-25 09:34N 39°30' E 020°16'8 8.0
2015-May-25 08:34N 39°32' E 020°06'1010.4
2015-May-25 07:34N 39°38' E 019°54'0 0.0
2015-May-25 06:34N 39°38' E 019°54'8 7.8
2015-May-25 05:34N 39°34' E 020°03'1010.4
2015-May-25 04:34N 39°30' E 020°16'0 0.0
2015-May-24 17:19N 39°30' E 020°16'0 0.0
2015-May-24 15:05N 39°30' E 020°16'5 7.9
2015-May-24 14:30N 39°26' E 020°12'1310.2
2015-May-24 13:10N 39°13' E 020°12'5 3.0
2015-May-24 11:30N 39°17' E 020°14'1110.7
2015-May-24 10:26N 39°29' E 020°12'3 3.3
2015-May-24 09:34N 39°30' E 020°16'8 8.2
2015-May-24 08:33N 39°32' E 020°06'1010.3
2015-May-24 07:34N 39°38' E 019°54'0 0.0
2015-May-24 06:34N 39°38' E 019°54'8 8.5
2015-May-24 05:34N 39°33' E 020°04'10 0.7
2015-May-23 15:12N 39°30' E 020°16'5 8.4
2015-May-23 14:33N 39°26' E 020°11'1110.0
2015-May-23 13:27N 39°15' E 020°15'4 3.6
2015-May-23 12:23N 39°12' E 020°11'6 7.0
2015-May-23 11:32N 39°18' E 020°10'10 9.8
2015-May-23 10:33N 39°28' E 020°11'4 4.0
2015-May-23 09:34N 39°30' E 020°16'8 8.1
2015-May-23 08:34N 39°32' E 020°06'1010.4
2015-May-23 07:34N 39°38' E 019°54'0 0.0
2015-May-23 06:34N 39°38' E 019°54'9 8.6
2015-May-23 05:34N 39°33' E 020°04'10 9.8
2015-May-23 04:34N 39°30' E 020°16'0 0.0
2015-May-22 15:14N 39°30' E 020°16'4 5.7
2015-May-22 14:32N 39°28' E 020°12'1111.2
2015-May-22 13:34N 39°17' E 020°11'5 4.6
2015-May-22 12:34N 39°12' E 020°11'6 5.6
2015-May-22 11:33N 39°18' E 020°12'11 9.9
2015-May-22 10:25N 39°29' E 020°12'3 3.5
2015-May-22 09:34N 39°30' E 020°16'9 8.5
2015-May-22 08:34N 39°32' E 020°05'10 9.9
2015-May-22 07:34N 39°38' E 019°54'0 0.1
2015-May-22 06:34N 39°38' E 019°54'8 8.4
2015-May-22 05:34N 39°34' E 020°04'10 9.9
2015-May-22 04:33N 39°30' E 020°16'0 0.0
2015-May-22 03:33N 39°30' E 020°16'0 0.0
2015-May-22 02:30N 39°30' E 020°16'0 0.0
2015-May-22 01:32N 39°30' E 020°16'0 0.0
2015-May-22 00:17N 39°30' E 020°16'0 0.0
2015-May-21 23:26N 39°30' E 020°16'0 0.0
2015-May-21 22:18N 39°30' E 020°16'0 0.0
2015-May-21 21:18N 39°30' E 020°16'0 0.0
2015-May-21 20:31N 39°30' E 020°16'0 0.0
2015-May-21 19:32N 39°30' E 020°16'0 0.0
2015-May-21 18:04N 39°30' E 020°16'0 0.0
2015-May-21 17:32N 39°30' E 020°16'0 0.0
2015-May-21 16:31N 39°30' E 020°16'0 0.0
2015-May-21 15:33N 39°30' E 020°16'3 3.1
2015-May-21 14:33N 39°29' E 020°12'1111.2
2015-May-21 13:34N 39°18' E 020°12'6 5.6
2015-May-21 12:34N 39°12' E 020°11'4 4.3
2015-May-21 11:34N 39°17' E 020°11'1210.7
2015-May-21 10:28N 39°28' E 020°12'3 3.5
2015-May-21 09:33N 39°30' E 020°16'8 8.1
2015-May-21 08:34N 39°32' E 020°06'10 4.8
2015-May-21 06:25N 39°38' E 019°54'8 9.0
2015-May-21 05:34N 39°34' E 020°03'1110.5
2015-May-21 04:33N 39°30' E 020°16'0 0.2
2015-May-21 03:30N 39°30' E 020°16'0 0.0
2015-May-20 15:14N 39°30' E 020°16'5 5.7
2015-May-20 14:19N 39°26' E 020°12'1210.8
2015-May-20 13:12N 39°13' E 020°12'1 1.7
2015-May-20 12:28N 39°12' E 020°11'6 6.5
2015-May-20 11:31N 39°18' E 020°12'1010.7
2015-May-20 10:32N 39°29' E 020°12'3 2.9
2015-May-20 09:34N 39°30' E 020°16'8 8.1
2015-May-20 08:34N 39°32' E 020°06'1010.4
2015-May-20 07:34N 39°38' E 019°54'0 0.0
2015-May-20 06:34N 39°38' E 019°54'9 9.2
2015-May-20 05:34N 39°33' E 020°05'9 9.2
2015-May-20 04:34N 39°30' E 020°16'0 0.0
2015-May-20 03:34N 39°30' E 020°16'0 0.0
2015-May-20 02:34N 39°30' E 020°16'0 0.0
2015-May-20 01:34N 39°30' E 020°16'0 0.0
2015-May-20 00:33N 39°30' E 020°16'0 0.0
2015-May-19 23:34N 39°30' E 020°16'0 0.0
2015-May-19 22:33N 39°30' E 020°16'0 0.0
2015-May-19 21:34N 39°30' E 020°16'0 0.0
2015-May-19 20:34N 39°30' E 020°16'0 0.0
2015-May-19 19:34N 39°30' E 020°16'0 0.0
2015-May-19 18:34N 39°30' E 020°16'0 0.0
2015-May-19 14:34N 39°30' E 020°16'0 0.0
2015-May-19 13:34N 39°30' E 020°16'0 0.0
2015-May-19 12:34N 39°30' E 020°16'0 0.0
2015-May-19 11:34N 39°30' E 020°16'0 0.0
2015-May-19 10:34N 39°30' E 020°16'0 0.0
2015-May-19 09:34N 39°30' E 020°16'8 7.8
2015-May-19 08:34N 39°32' E 020°06'1110.6
2015-May-19 07:34N 39°38' E 019°54'0 0.1
2015-May-19 06:33N 39°38' E 019°54'8 7.9
2015-May-19 05:34N 39°34' E 020°03'1010.2
2015-May-19 04:33N 39°30' E 020°16'5 0.4
2015-May-18 14:23N 39°26' E 020°12'1310.9
2015-May-18 13:12N 39°13' E 020°12'1 0.9
2015-May-18 12:33N 39°12' E 020°11'7 6.8
2015-May-18 11:33N 39°19' E 020°12'11 8.8
2015-May-18 10:17N 39°30' E 020°15'0 0.4
2015-May-18 09:34N 39°30' E 020°16'8 8.3
2015-May-18 08:34N 39°33' E 020°06'1010.1
2015-May-18 07:33N 39°38' E 019°54'0 0.0
2015-May-18 06:34N 39°38' E 019°54'8 8.4
2015-May-18 05:34N 39°34' E 020°04'1010.0
2015-May-18 04:33N 39°30' E 020°16'0 0.0
2015-May-18 03:34N 39°30' E 020°16'0 0.0
2015-May-18 02:34N 39°30' E 020°16'0 0.0
2015-May-18 01:34N 39°30' E 020°16'0 0.0
2015-May-18 00:33N 39°30' E 020°16'0 0.0
2015-May-17 23:33N 39°30' E 020°16'0 0.0
2015-May-17 22:34N 39°30' E 020°16'0 0.0
2015-May-17 21:34N 39°30' E 020°16'0 0.0
2015-May-17 20:33N 39°30' E 020°16'0 0.0
2015-May-17 19:34N 39°30' E 020°16'0 0.0
2015-May-17 18:25N 39°30' E 020°16'0 0.0
2015-May-17 17:34N 39°30' E 020°16'0 0.0
2015-May-17 16:34N 39°30' E 020°16'0 0.0
2015-May-17 15:33N 39°30' E 020°16'0 0.0
2015-May-17 14:34N 39°30' E 020°16'0 0.0
2015-May-17 13:34N 39°30' E 020°16'0 0.0
2015-May-17 12:34N 39°30' E 020°16'4 3.8
2015-May-17 11:24N 39°31' E 020°10'910.6
2015-May-17 10:34N 39°35' E 020°00'5 5.3
2015-May-17 09:34N 39°38' E 019°54'0 0.0
2015-May-17 08:34N 39°38' E 019°54'8 7.7
2015-May-17 07:34N 39°34' E 020°03'1110.6
2015-May-17 06:34N 39°30' E 020°16'4 4.0
2015-May-17 05:27N 39°31' E 020°10'910.3
2015-May-17 04:34N 39°35' E 020°00'5 5.0
2015-May-17 03:34N 39°38' E 019°54'3 3.0
2015-May-17 02:33N 39°37' E 019°58'1111.2
2015-May-17 01:33N 39°31' E 020°10'4 1.0
2015-May-16 21:15N 39°30' E 020°16'0 0.0
2015-May-16 20:10N 39°30' E 020°16'4 0.7
2015-May-16 14:25N 39°27' E 020°12'1011.3
2015-May-16 13:31N 39°17' E 020°12'5 4.9
2015-May-16 12:34N 39°12' E 020°11'6 5.8
2015-May-16 11:34N 39°18' E 020°11'1110.0
2015-May-16 10:24N 39°29' E 020°12'3 3.6
2015-May-16 09:34N 39°30' E 020°16'9 8.8
2015-May-16 08:34N 39°33' E 020°05'10 9.6
2015-May-16 07:34N 39°38' E 019°54'0 0.0
2015-May-16 06:34N 39°38' E 019°54'8 8.5
2015-May-16 05:34N 39°33' E 020°04'8 0.6
2015-May-15 14:32N 39°28' E 020°12'1111.1
2015-May-15 13:33N 39°17' E 020°12'5 4.6
2015-May-15 12:34N 39°12' E 020°11'8 7.5
2015-May-15 11:34N 39°20' E 020°11'  

Dump ship's entire track history